Time;durP1;ratioP1;P1;durP2;ratioP2;P2;SDS_P1;SDS_P2;PMS_P1;PMS_P2;Temp;Humidity;BMP_temperature;BMP_pressure;BME280_temperature;BME280_humidity;BME280_pressure;Samples;Min_cycle;Max_cycle;Signal;HPM_P1;HPM_P2
2021/08/11 00:00:05;;;;;;;10.20;8.27;;;;;;;14.74;94.15;101157.81;693811;28;1555;-59
2021/08/11 00:00:26;;;;;;;12.52;8.20;;;;;;;14.73;94.12;101165.75;692815;28;1906;-58
2021/08/11 00:00:46;;;;;;;13.13;8.50;;;;;;;14.74;94.00;101159.59;692934;28;1516;-59
2021/08/11 00:01:07;;;;;;;10.60;8.13;;;;;;;14.72;94.25;101164.88;692777;28;1523;-59
2021/08/11 00:01:27;;;;;;;10.33;8.30;;;;;;;14.71;94.39;101165.75;690276;28;1351;-58
2021/08/11 00:01:47;;;;;;;9.50;8.18;;;;;;;14.68;94.32;101160.56;690292;28;4088;-58
2021/08/11 00:02:08;;;;;;;11.20;8.33;;;;;;;14.65;94.43;101160.59;690954;28;4413;-58
2021/08/11 00:02:28;;;;;;;11.70;8.25;;;;;;;14.62;94.78;101164.13;691502;28;1596;-56
2021/08/11 00:02:49;;;;;;;10.70;8.23;;;;;;;14.59;94.73;101160.63;690984;28;1293;-59
2021/08/11 00:03:09;;;;;;;10.20;8.65;;;;;;;14.55;94.78;101162.47;693775;28;1386;-59
2021/08/11 00:03:29;;;;;;;10.60;8.90;;;;;;;14.52;94.71;101157.22;693436;28;1229;-59
2021/08/11 00:03:49;;;;;;;10.87;8.50;;;;;;;14.48;94.87;101151.13;693092;28;1313;-58
2021/08/11 00:04:10;;;;;;;10.60;8.82;;;;;;;14.47;94.93;101159.91;693226;28;1435;-57
2021/08/11 00:04:30;;;;;;;9.93;8.70;;;;;;;14.46;94.83;101159.94;690669;28;1925;-59
2021/08/11 00:04:51;;;;;;;10.43;8.20;;;;;;;14.47;95.01;101154.66;696511;28;2196;-58
2021/08/11 00:05:12;;;;;;;9.73;7.93;;;;;;;14.50;95.07;101164.28;694195;28;4423;-59
2021/08/11 00:05:32;;;;;;;10.50;8.10;;;;;;;14.51;95.02;101154.59;695178;28;1243;-57
2021/08/11 00:05:53;;;;;;;9.90;8.20;;;;;;;14.52;95.09;101161.63;696260;28;1305;-58
2021/08/11 00:06:13;;;;;;;10.17;8.27;;;;;;;14.54;95.00;101151.94;695533;28;1379;-57
2021/08/11 00:06:33;;;;;;;9.63;7.85;;;;;;;14.56;94.80;101158.91;695802;28;1383;-59
2021/08/11 00:06:54;;;;;;;10.83;7.93;;;;;;;14.60;94.53;101154.50;692684;28;1322;-57
2021/08/11 00:07:14;;;;;;;10.03;7.50;;;;;;;14.65;94.23;101155.34;693346;28;1537;-58
2021/08/11 00:07:35;;;;;;;10.38;7.28;;;;;;;14.68;93.72;101155.28;693208;28;1871;-59
2021/08/11 00:07:55;;;;;;;9.63;7.33;;;;;;;14.71;93.58;101149.97;692293;28;2828;-59
2021/08/11 00:08:15;;;;;;;9.18;7.47;;;;;;;14.73;93.25;101152.59;691756;28;4538;-57
2021/08/11 00:08:36;;;;;;;8.80;7.30;;;;;;;14.71;93.23;101143.84;692563;28;1130;-58
2021/08/11 00:08:56;;;;;;;8.75;7.60;;;;;;;14.69;93.36;101153.50;693408;28;1355;-58
2021/08/11 00:09:17;;;;;;;8.53;7.50;;;;;;;14.70;93.49;101155.25;693774;28;1263;-58
2021/08/11 00:09:37;;;;;;;8.93;7.60;;;;;;;14.74;93.49;101156.97;693078;28;1204;-58
2021/08/11 00:09:57;;;;;;;9.98;7.43;;;;;;;14.77;93.15;101152.53;693204;28;1386;-58
2021/08/11 00:10:18;;;;;;;9.93;7.30;;;;;;;14.79;92.85;101153.38;691050;28;1259;-59
2021/08/11 00:10:39;;;;;;;9.93;7.22;;;;;;;14.81;92.63;101153.34;690547;28;3791;-59
2021/08/11 00:11:00;;;;;;;8.85;7.03;;;;;;;14.82;92.49;101157.72;691126;28;1368;-58
2021/08/11 00:11:20;;;;;;;9.10;7.28;;;;;;;14.81;92.50;101150.72;688532;28;4591;-59
2021/08/11 00:11:40;;;;;;;8.90;7.00;;;;;;;14.80;92.41;101154.22;691894;28;1141;-58
2021/08/11 00:12:01;;;;;;;8.07;6.90;;;;;;;14.80;92.41;101152.47;692151;28;1326;-57
2021/08/11 00:12:21;;;;;;;9.43;7.03;;;;;;;14.81;92.22;101153.34;693728;28;1466;-57
2021/08/11 00:12:41;;;;;;;9.03;6.93;;;;;;;14.77;92.58;101151.66;693462;28;1369;-58
2021/08/11 00:13:02;;;;;;;8.45;7.10;;;;;;;14.72;92.68;101153.50;693724;28;1291;-58
2021/08/11 00:13:22;;;;;;;10.77;7.40;;;;;;;14.70;92.98;101145.59;693211;28;2301;-59
2021/08/11 00:13:43;;;;;;;12.32;7.50;;;;;;;14.68;92.86;101150.03;693036;28;2742;-57
2021/08/11 00:14:03;;;;;;;10.07;7.53;;;;;;;14.68;93.13;101152.66;692213;28;1289;-59
2021/08/11 00:14:25;;;;;;;9.43;7.20;;;;;;;14.67;93.16;101150.91;692816;28;4518;-58
2021/08/11 00:14:45;;;;;;;9.85;7.05;;;;;;;14.61;93.37;101154.47;693512;28;1344;-59
2021/08/11 00:15:07;;;;;;;8.87;7.10;;;;;;;14.57;93.51;101150.13;693470;28;1480;-59
2021/08/11 00:15:27;;;;;;;8.85;7.05;;;;;;;14.55;93.84;101151.94;694185;28;1541;-58
2021/08/11 00:15:48;;;;;;;8.73;7.60;;;;;;;14.55;93.98;101151.03;693838;28;1517;-59
2021/08/11 00:16:09;;;;;;;9.13;7.40;;;;;;;14.56;93.72;101153.66;693697;28;1537;-58
2021/08/11 00:16:29;;;;;;;8.93;6.82;;;;;;;14.57;93.55;101151.91;692181;28;2270;-58
2021/08/11 00:16:50;;;;;;;8.33;6.77;;;;;;;14.57;93.40;101155.41;694445;28;1348;-59
2021/08/11 00:17:10;;;;;;;7.70;6.50;;;;;;;14.56;93.24;101156.28;693089;28;4606;-57
2021/08/11 00:17:31;;;;;;;9.17;6.73;;;;;;;14.55;93.34;101148.41;692288;28;1135;-57
2021/08/11 00:17:51;;;;;;;7.90;6.50;;;;;;;14.53;93.54;101152.84;693121;28;1406;-58
2021/08/11 00:18:12;;;;;;;8.80;7.20;;;;;;;14.54;93.74;101155.44;693389;28;1402;-59
2021/08/11 00:18:33;;;;;;;9.23;7.13;;;;;;;14.51;93.94;101151.97;694168;28;1409;-58
2021/08/11 00:18:54;;;;;;;8.32;6.90;;;;;;;14.52;93.71;101151.09;693614;28;1405;-59
2021/08/11 00:19:15;;;;;;;8.93;6.97;;;;;;;14.53;93.38;101148.44;693586;28;1282;-59
2021/08/11 00:19:35;;;;;;;8.13;6.63;;;;;;;14.57;93.49;101152.78;692898;28;1231;-58
2021/08/11 00:19:55;;;;;;;7.67;6.80;;;;;;;14.56;93.09;101148.38;692925;28;1043;-57
2021/08/11 00:20:16;;;;;;;8.00;6.75;;;;;;;14.56;93.07;101148.38;691670;28;4468;-59
2021/08/11 00:20:36;;;;;;;7.93;6.57;;;;;;;14.56;93.15;101148.38;693539;28;3637;-57
2021/08/11 00:20:57;;;;;;;7.10;6.22;;;;;;;14.58;92.62;101145.72;694941;28;2708;-59
2021/08/11 00:21:17;;;;;;;8.23;6.40;;;;;;;14.54;92.69;101147.56;695292;28;1277;-58
2021/08/11 00:21:38;;;;;;;9.23;6.50;;;;;;;14.56;92.83;101145.75;696185;28;1660;-58
2021/08/11 00:21:58;;;;;;;8.10;6.53;;;;;;;14.57;92.94;101151.91;696712;28;1320;-58
2021/08/11 00:22:18;;;;;;;7.90;6.35;;;;;;;14.58;92.99;101151.00;696585;28;1449;-58
2021/08/11 00:22:39;;;;;;;7.53;6.60;;;;;;;14.57;92.98;101144.00;694579;28;1421;-59
2021/08/11 00:22:59;;;;;;;7.97;6.25;;;;;;;14.59;92.88;101147.47;695289;28;1441;-60
2021/08/11 00:23:21;;;;;;;7.03;5.93;;;;;;;14.60;92.39;101152.72;693831;28;4647;-59
2021/08/11 00:23:41;;;;;;;7.63;6.50;;;;;;;14.61;92.17;101149.19;694714;28;1646;-58
2021/08/11 00:24:02;;;;;;;8.50;6.80;;;;;;;14.60;92.76;101149.22;694144;28;1538;-58
2021/08/11 00:24:22;;;;;;;8.07;6.43;;;;;;;14.56;92.78;101151.03;692528;28;1476;-59
2021/08/11 00:24:45;;;;;;;8.53;6.10;;;;;;;14.54;92.88;101150.19;694788;28;2749;-55
2021/08/11 00:25:06;;;;;;;8.95;6.28;;;;;;;14.52;92.94;101146.69;694478;28;4113;-59
2021/08/11 00:25:26;;;;;;;9.70;6.90;;;;;;;14.48;93.15;101145.88;694690;28;1233;-59
2021/08/11 00:25:47;;;;;;;8.03;6.27;;;;;;;14.49;93.25;101149.38;691959;28;1575;-57
2021/08/11 00:26:07;;;;;;;8.05;6.40;;;;;;;14.52;93.15;101145.84;691716;28;4647;-54
2021/08/11 00:26:27;;;;;;;8.00;6.40;;;;;;;14.51;93.14;101152.88;694758;28;1582;-58
2021/08/11 00:26:48;;;;;;;8.13;6.60;;;;;;;14.48;92.95;101147.63;692035;28;1755;-59
2021/08/11 00:27:08;;;;;;;8.50;6.23;;;;;;;14.47;92.78;101152.03;692321;28;1441;-57
2021/08/11 00:27:28;;;;;;;7.73;6.17;;;;;;;14.47;92.87;101148.53;692474;28;1798;-59
2021/08/11 00:27:50;;;;;;;7.22;6.32;;;;;;;14.48;92.97;101153.78;689579;28;1476;-58
2021/08/11 00:28:12;;;;;;;7.47;6.03;;;;;;;14.53;92.77;101150.22;689479;28;1366;-58
2021/08/11 00:28:32;;;;;;;7.10;5.90;;;;;;;14.55;92.40;101141.41;690270;28;1605;-57
2021/08/11 00:28:52;;;;;;;7.68;6.00;;;;;;;14.58;92.16;101146.63;692288;28;2910;-59
2021/08/11 00:29:13;;;;;;;7.40;5.70;;;;;;;14.61;92.16;101145.72;688990;28;4547;-59
2021/08/11 00:29:34;;;;;;;7.05;5.60;;;;;;;14.61;91.83;101151.84;692728;28;1864;-56
2021/08/11 00:29:54;;;;;;;7.60;5.70;;;;;;;14.61;91.65;101150.97;691870;28;1274;-57
2021/08/11 00:30:15;;;;;;;7.15;6.00;;;;;;;14.60;91.71;101150.09;692078;28;1766;-59
2021/08/11 00:30:36;;;;;;;9.47;6.20;;;;;;;14.57;91.81;101150.13;692310;28;1506;-58
2021/08/11 00:30:56;;;;;;;9.50;6.00;;;;;;;14.57;91.87;101151.91;691686;28;1687;-57
2021/08/11 00:31:17;;;;;;;8.27;6.15;;;;;;;14.60;91.91;101151.84;695045;28;1835;-58
2021/08/11 00:31:38;;;;;;;8.02;5.85;;;;;;;14.60;91.71;101152.72;692855;28;1282;-58
2021/08/11 00:31:58;;;;;;;7.33;5.80;;;;;;;14.58;91.59;101146.63;691917;28;1109;-57
2021/08/11 00:32:19;;;;;;;7.75;5.72;;;;;;;14.57;92.02;101157.16;691359;28;4694;-58
2021/08/11 00:32:39;;;;;;;7.50;5.73;;;;;;;14.50;92.11;101143.22;690144;28;2060;-58
2021/08/11 00:33:00;;;;;;;8.02;6.05;;;;;;;14.44;92.42;101156.44;688846;28;3957;-57
2021/08/11 00:33:21;;;;;;;6.93;6.00;;;;;;;14.39;92.88;101153.03;689092;28;4166;-56
2021/08/11 00:33:41;;;;;;;8.20;5.60;;;;;;;14.36;92.76;101150.41;689810;28;1481;-56
2021/08/11 00:34:02;;;;;;;8.50;6.28;;;;;;;14.28;92.90;101147.88;689454;28;1493;-57
2021/08/11 00:34:22;;;;;;;7.47;6.07;;;;;;;14.23;93.28;101154.97;691953;28;2035;-58
2021/08/11 00:34:43;;;;;;;6.77;5.90;;;;;;;14.17;93.29;101148.00;692231;28;1544;-57
2021/08/11 00:35:04;;;;;;;7.75;5.97;;;;;;;14.15;93.53;101147.19;686977;28;1632;-54
2021/08/11 00:35:24;;;;;;;8.30;6.32;;;;;;;14.17;93.92;101153.28;680973;28;4402;-59
2021/08/11 00:35:46;;;;;;;7.60;5.90;;;;;;;14.21;94.25;101151.50;678868;29;1344;-58
2021/08/11 00:36:07;;;;;;;6.95;5.65;;;;;;;14.26;93.75;101150.53;680527;29;1880;-56
2021/08/11 00:36:29;;;;;;;6.68;5.90;;;;;;;14.26;93.56;101153.16;682018;28;1109;-58
2021/08/11 00:36:49;;;;;;;6.93;5.93;;;;;;;14.23;93.77;101149.69;685759;28;1084;-58
2021/08/11 00:37:11;;;;;;;7.35;5.80;;;;;;;14.20;93.89;101152.38;687070;28;3982;-57
2021/08/11 00:37:35;;;;;;;7.47;6.03;;;;;;;14.20;94.09;101150.59;689163;28;4585;-56
2021/08/11 00:37:56;;;;;;;7.90;6.25;;;;;;;14.20;94.30;101153.22;687553;28;1941;-56
2021/08/11 00:38:19;;;;;;;8.05;6.45;;;;;;;14.20;94.53;101147.97;684690;28;4583;-56
2021/08/11 00:38:40;;;;;;;7.38;6.20;;;;;;;14.20;94.38;101155.00;684789;28;1490;-58
2021/08/11 00:39:05;;;;;;;7.75;6.30;;;;;;;14.23;94.03;101150.59;685842;28;1594;-53
2021/08/11 00:39:25;;;;;;;7.72;6.30;;;;;;;14.22;93.85;101143.59;685525;28;1714;-54
2021/08/11 00:39:46;;;;;;;7.03;6.17;;;;;;;14.21;94.25;101146.22;684471;28;1536;-58
2021/08/11 00:40:07;;;;;;;7.83;6.50;;;;;;;14.19;93.95;101146.25;681797;28;1660;-58
2021/08/11 00:40:31;;;;;;;7.68;6.53;;;;;;;14.19;94.15;101148.88;682695;28;2013;-57
2021/08/11 00:40:52;;;;;;;8.30;6.30;;;;;;;14.17;94.24;101144.53;682628;28;1408;-56
2021/08/11 00:41:14;;;;;;;8.10;6.10;;;;;;;14.18;94.54;101146.25;684273;28;4511;-56
2021/08/11 00:41:37;;;;;;;7.80;6.20;;;;;;;14.18;94.75;101144.50;685091;28;4593;-58
2021/08/11 00:41:57;;;;;;;7.88;6.38;;;;;;;14.16;94.76;101143.63;684780;28;2336;-57
2021/08/11 00:42:18;;;;;;;8.80;6.87;;;;;;;14.17;94.69;101140.13;684421;28;1791;-57
2021/08/11 00:42:39;;;;;;;8.68;6.75;;;;;;;14.19;94.31;101148.00;682733;28;1351;-56
2021/08/11 00:43:05;;;;;;;7.60;6.32;;;;;;;14.20;94.70;101142.72;684965;28;2025;-57
2021/08/11 00:43:26;;;;;;;8.10;6.43;;;;;;;14.21;94.29;101141.84;687713;28;1512;-56
2021/08/11 00:43:46;;;;;;;8.17;6.17;;;;;;;14.23;94.27;101145.34;687215;28;1348;-58
2021/08/11 00:44:08;;;;;;;7.43;6.20;;;;;;;14.24;94.27;101147.03;683599;28;4337;-56
2021/08/11 00:44:29;;;;;;;8.23;6.20;;;;;;;14.26;93.86;101140.03;687018;28;1201;-57
2021/08/11 00:44:49;;;;;;;7.45;5.80;;;;;;;14.29;93.75;101141.75;686327;28;1444;-58
2021/08/11 00:45:10;;;;;;;7.20;5.50;;;;;;;14.31;93.55;101139.97;684789;28;1328;-57
2021/08/11 00:45:31;;;;;;;7.80;5.82;;;;;;;14.36;93.47;101140.78;683798;28;4033;-57
2021/08/11 00:45:52;;;;;;;7.00;5.93;;;;;;;14.38;93.23;101138.13;684789;28;4121;-57
2021/08/11 00:46:12;;;;;;;6.63;5.93;;;;;;;14.37;93.34;101145.16;684150;28;1679;-58
2021/08/11 00:46:33;;;;;;;6.88;5.80;;;;;;;14.35;93.55;101139.03;687397;28;1698;-57
2021/08/11 00:46:55;;;;;;;7.32;6.13;;;;;;;14.36;93.78;101145.16;689710;28;1848;-57
2021/08/11 00:47:16;;;;;;;6.80;5.93;;;;;;;14.36;93.74;101150.41;689089;28;4593;-56
2021/08/11 00:47:37;;;;;;;7.15;6.28;;;;;;;14.33;94.03;101151.34;689583;28;1480;-56
2021/08/11 00:47:59;;;;;;;7.50;6.70;;;;;;;14.29;93.91;101144.38;687742;28;1449;-57
2021/08/11 00:48:24;;;;;;;7.15;6.40;;;;;;;14.26;93.96;101145.28;685924;28;1512;-56
2021/08/11 00:48:45;;;;;;;7.65;6.20;;;;;;;14.27;93.94;101144.41;683100;28;1251;-56
2021/08/11 00:49:13;;;;;;;7.60;6.57;;;;;;;14.26;94.50;101145.28;683236;28;1641;-54
2021/08/11 00:49:34;;;;;;;8.77;6.35;;;;;;;14.26;94.56;101142.66;685395;28;1599;-57
2021/08/11 00:50:00;;;;;;;7.63;6.50;;;;;;;14.25;94.33;101142.69;685883;28;4186;-54
2021/08/11 00:50:22;;;;;;;7.72;6.50;;;;;;;14.23;94.39;101142.69;689014;28;4495;-58
2021/08/11 00:50:43;;;;;;;8.93;6.40;;;;;;;14.23;94.73;101144.44;687720;28;1235;-56
2021/08/11 00:51:06;;;;;;;7.60;6.40;;;;;;;14.24;94.29;101136.53;686056;28;1835;-58
2021/08/11 00:51:27;;;;;;;7.53;6.32;;;;;;;14.24;94.63;101141.78;690406;28;1424;-59
2021/08/11 00:51:52;;;;;;;7.63;5.90;;;;;;;14.27;94.50;101151.41;688194;28;1374;-58
2021/08/11 00:52:13;;;;;;;7.47;5.70;;;;;;;14.24;94.58;101146.19;687853;28;1111;-56
2021/08/11 00:52:38;;;;;;;6.88;5.90;;;;;;;14.20;94.60;101150.59;686859;28;1654;-58
2021/08/11 00:53:05;;;;;;;7.32;5.80;;;;;;;14.17;94.91;101150.66;686680;28;1262;-55
2021/08/11 00:53:27;;;;;;;8.30;6.20;;;;;;;14.17;95.13;101144.53;689284;28;4610;-59
2021/08/11 00:53:52;;;;;;;7.90;6.53;;;;;;;14.17;95.25;101144.53;690861;28;1414;-58
2021/08/11 00:54:17;;;;;;;9.18;6.97;;;;;;;14.17;95.40;101150.66;688489;28;2663;-57
2021/08/11 00:54:40;;;;;;;7.63;6.32;;;;;;;14.20;95.35;101145.34;686052;28;1592;-59
2021/08/11 00:55:04;;;;;;;7.28;6.13;;;;;;;14.21;94.97;101144.47;689107;28;1106;-59
2021/08/11 00:55:25;;;;;;;8.35;6.07;;;;;;;14.25;94.93;101147.94;688907;28;1163;-54
2021/08/11 00:55:46;;;;;;;7.70;5.75;;;;;;;14.26;95.37;101154.91;685953;28;1505;-58
2021/08/11 00:56:12;;;;;;;7.30;6.40;;;;;;;14.24;95.52;101154.06;688384;28;4395;-59
2021/08/11 00:56:34;;;;;;;8.10;6.32;;;;;;;14.23;95.32;101154.97;691389;28;1502;-56
2021/08/11 00:56:55;;;;;;;9.00;6.43;;;;;;;14.21;95.36;101146.22;686713;28;986;-58
2021/08/11 00:57:17;;;;;;;8.00;6.30;;;;;;;14.20;95.56;101155.00;683705;28;1572;-56
2021/08/11 00:57:39;;;;;;;8.93;6.68;;;;;;;14.18;95.69;101146.25;686864;28;1412;-56
2021/08/11 00:58:04;;;;;;;10.18;6.85;;;;;;;14.14;96.12;101148.06;683976;28;3458;-59
2021/08/11 00:58:29;;;;;;;8.85;6.95;;;;;;;14.13;95.90;101149.78;685319;28;3981;-55
2021/08/11 00:58:52;;;;;;;9.60;6.90;;;;;;;14.15;95.74;101152.44;690726;28;1820;-59
2021/08/11 00:59:16;;;;;;;10.40;7.30;;;;;;;14.16;95.57;101148.03;691440;28;4649;-58
2021/08/11 00:59:37;;;;;;;11.80;7.20;;;;;;;14.16;95.65;101146.25;689813;28;1116;-59
2021/08/11 01:00:00;;;;;;;12.00;7.65;;;;;;;14.17;95.49;101152.41;689662;28;1482;-55
2021/08/11 01:00:22;;;;;;;10.38;7.22;;;;;;;14.19;95.31;101150.63;691129;28;1466;-57
2021/08/11 01:00:45;;;;;;;10.98;7.20;;;;;;;14.22;95.45;101156.72;692383;28;1955;-56
2021/08/11 01:01:06;;;;;;;9.70;6.95;;;;;;;14.25;95.09;101148.78;693296;28;1455;-57
2021/08/11 01:01:31;;;;;;;10.48;6.90;;;;;;;14.27;95.30;101152.28;692344;28;1667;-55
2021/08/11 01:01:52;;;;;;;10.77;7.30;;;;;;;14.27;95.25;101149.66;692934;28;1262;-58
2021/08/11 01:02:19;;;;;;;12.50;7.85;;;;;;;14.26;95.42;101145.28;691518;28;4482;-58
2021/08/11 01:02:44;;;;;;;11.43;7.53;;;;;;;14.31;94.88;101148.69;688945;28;4142;-58
2021/08/11 01:03:10;;;;;;;10.68;7.28;;;;;;;14.34;95.01;101150.44;688897;28;1134;-57
2021/08/11 01:03:31;;;;;;;11.30;7.07;;;;;;;14.35;94.80;101157.44;690637;28;1620;-56
2021/08/11 01:03:54;;;;;;;11.13;7.13;;;;;;;14.37;94.76;101154.78;689069;28;1428;-58
2021/08/11 01:04:17;;;;;;;11.48;7.45;;;;;;;14.38;94.54;101154.75;689671;28;1405;-59
2021/08/11 01:04:39;;;;;;;11.77;7.20;;;;;;;14.40;94.67;101154.75;689454;28;1662;-58
2021/08/11 01:05:01;;;;;;;11.65;7.43;;;;;;;14.41;94.49;101148.59;692319;28;1294;-57
2021/08/11 01:05:22;;;;;;;11.63;7.63;;;;;;;14.41;94.52;101154.75;688282;28;4446;-58
2021/08/11 01:05:45;;;;;;;12.93;7.95;;;;;;;14.41;95.03;101149.50;689129;28;1104;-58
2021/08/11 01:06:06;;;;;;;13.05;8.20;;;;;;;14.42;94.50;101151.19;689131;28;1197;-59
2021/08/11 01:06:29;;;;;;;15.13;8.55;;;;;;;14.43;94.62;101150.31;687341;28;3638;-56
2021/08/11 01:06:50;;;;;;;14.48;8.60;;;;;;;14.43;94.47;101152.09;690788;28;1584;-58
2021/08/11 01:07:15;;;;;;;16.67;9.07;;;;;;;14.41;94.77;101148.59;688441;28;1786;-59
2021/08/11 01:07:36;;;;;;;17.42;8.77;;;;;;;14.41;94.86;101151.22;686840;28;1684;-58
2021/08/11 01:07:59;;;;;;;15.65;8.75;;;;;;;14.40;94.96;101153.00;684562;28;1719;-56
2021/08/11 01:08:22;;;;;;;15.20;8.45;;;;;;;14.41;94.81;101153.84;683100;28;4351;-59
2021/08/11 01:08:44;;;;;;;13.13;7.57;;;;;;;14.40;94.78;101152.09;686905;28;1539;-59
2021/08/11 01:09:04;;;;;;;12.15;7.22;;;;;;;14.39;94.76;101145.13;689690;28;1227;-55
2021/08/11 01:09:30;;;;;;;12.35;7.30;;;;;;;14.42;94.68;101155.59;686908;28;1574;-58
2021/08/11 01:09:52;;;;;;;11.55;7.20;;;;;;;14.43;94.43;101149.47;688413;28;1612;-58
2021/08/11 01:10:15;;;;;;;10.75;7.20;;;;;;;14.43;94.57;101152.94;686373;28;1430;-57
2021/08/11 01:10:38;;;;;;;10.93;7.40;;;;;;;14.45;94.20;101156.44;685603;28;3761;-57
2021/08/11 01:10:59;;;;;;;11.27;7.25;;;;;;;14.47;94.16;101153.78;685052;28;3641;-56
2021/08/11 01:11:21;;;;;;;11.35;7.60;;;;;;;14.46;94.44;101147.66;683622;28;4441;-57
2021/08/11 01:11:47;;;;;;;11.77;8.02;;;;;;;14.45;94.89;101151.19;686710;28;1658;-56
2021/08/11 01:12:08;;;;;;;15.15;8.13;;;;;;;14.44;95.29;101149.44;686390;28;1422;-59
2021/08/11 01:12:29;;;;;;;15.93;8.83;;;;;;;14.41;95.72;101145.97;687303;28;1661;-57
2021/08/11 01:12:50;;;;;;;14.50;8.80;;;;;;;14.38;95.66;101146.00;686411;28;1492;-57
2021/08/11 01:13:13;;;;;;;14.10;8.35;;;;;;;14.37;95.39;101145.16;683999;28;1865;-58
2021/08/11 01:13:34;;;;;;;13.77;8.10;;;;;;;14.39;95.44;101142.50;685302;28;2339;-55
2021/08/11 01:13:56;;;;;;;15.00;8.32;;;;;;;14.39;95.38;101151.25;687737;28;1583;-56
2021/08/11 01:14:18;;;;;;;14.20;8.15;;;;;;;14.41;94.83;101149.50;687328;28;4331;-56
2021/08/11 01:14:40;;;;;;;12.80;7.73;;;;;;;14.44;94.27;101153.81;686636;28;1597;-55
2021/08/11 01:15:08;;;;;;;12.68;8.02;;;;;;;14.46;94.19;101149.41;684924;28;4653;-59
2021/08/11 01:15:29;;;;;;;13.00;7.10;;;;;;;14.51;93.79;101150.22;685553;28;1870;-56
2021/08/11 01:15:50;;;;;;;13.38;7.68;;;;;;;14.53;93.87;101151.06;686740;28;1683;-57
2021/08/11 01:16:16;;;;;;;12.32;7.45;;;;;;;14.56;93.44;101153.66;686273;28;1432;-58
2021/08/11 01:16:37;;;;;;;11.60;7.30;;;;;;;14.59;93.51;101151.00;691499;28;1655;-58
2021/08/11 01:16:57;;;;;;;12.40;7.47;;;;;;;14.61;93.17;101154.47;692186;28;1579;-59
2021/08/11 01:17:26;;;;;;;12.73;7.97;;;;;;;14.63;93.17;101149.22;689049;28;4759;-58
2021/08/11 01:17:47;;;;;;;15.15;8.80;;;;;;;14.61;93.47;101151.84;689348;28;2354;-57
2021/08/11 01:18:09;;;;;;;16.97;9.00;;;;;;;14.59;93.92;101148.38;684869;28;1441;-58
2021/08/11 01:18:31;;;;;;;15.85;9.25;;;;;;;14.57;93.73;101155.41;686005;28;1663;-58
2021/08/11 01:18:52;;;;;;;16.20;9.55;;;;;;;14.58;93.83;101156.25;686674;28;3670;-58
2021/08/11 01:19:12;;;;;;;17.15;9.48;;;;;;;14.57;93.86;101150.13;690847;28;4246;-58
2021/08/11 01:19:33;;;;;;;16.20;9.17;;;;;;;14.59;93.54;101147.47;690629;28;1827;-59
2021/08/11 01:19:58;;;;;;;15.85;8.93;;;;;;;14.62;93.20;101152.69;690896;28;1500;-58
2021/08/11 01:20:18;;;;;;;16.77;9.15;;;;;;;14.63;92.96;101152.72;688140;28;4480;-57
2021/08/11 01:20:48;;;;;;;17.88;9.10;;;;;;;14.70;92.64;101150.84;687864;28;1914;-58
2021/08/11 01:21:25;;;;;;;16.40;9.40;;;;;;;14.72;92.82;101148.25;689020;28;1656;-57
2021/08/11 01:22:34;;;;;;;19.52;10.15;;;;;;;14.63;94.13;101151.84;691394;28;1389;-59
2021/08/11 01:23:04;;;;;;;22.92;11.23;;;;;;;14.58;94.43;101151.88;683617;28;1664;-57
2021/08/11 01:23:28;;;;;;;21.63;10.93;;;;;;;14.56;94.71;101158.91;691122;28;4547;-57
2021/08/11 01:23:57;;;;;;;20.73;10.18;;;;;;;14.54;94.99;101159.81;688880;28;1662;-58
2021/08/11 01:24:35;;;;;;;18.80;10.32;;;;;;;14.48;95.33;101159.03;686539;28;1485;-56
2021/08/11 01:25:14;;;;;;;27.67;10.95;;;;;;;14.45;95.66;101158.19;689142;28;1893;-59
2021/08/11 01:25:40;;;;;;;23.50;10.45;;;;;;;14.43;95.44;101155.59;691987;28;1761;-56
2021/08/11 01:26:16;;;;;;;21.45;10.95;;;;;;;14.43;95.57;101157.34;689164;28;1433;-58
2021/08/11 01:26:36;;;;;;;25.60;11.98;;;;;;;14.43;95.27;101163.47;691579;28;4989;-58
2021/08/11 01:27:21;;;;;;;24.25;11.70;;;;;;;14.44;95.34;101157.34;691985;28;1622;-58
2021/08/11 01:27:56;;;;;;;20.23;11.38;;;;;;;14.44;95.38;101156.44;692101;28;1502;-58
2021/08/11 01:28:42;;;;;;;25.00;11.90;;;;;;;14.46;94.98;101157.31;691202;28;1784;-59
2021/08/11 01:29:10;;;;;;;20.15;10.43;;;;;;;14.46;95.15;101158.16;688992;28;1525;-59
2021/08/11 01:30:00;;;;;;;22.88;11.70;;;;;;;14.43;95.87;101152.09;689943;28;5048;-56
2021/08/11 01:30:29;;;;;;;26.05;12.18;;;;;;;14.41;96.16;101160.00;689287;28;1458;-59
2021/08/11 01:31:07;;;;;;;26.65;12.00;;;;;;;14.41;95.17;101156.47;687572;28;1476;-58
2021/08/11 01:31:42;;;;;;;20.20;10.88;;;;;;;14.44;94.88;101153.81;688463;28;2553;-58
2021/08/11 01:32:15;;;;;;;18.15;9.75;;;;;;;14.50;94.45;101155.53;686417;28;1698;-59
2021/08/11 01:32:57;;;;;;;20.48;10.48;;;;;;;14.53;94.59;101153.69;689372;28;5612;-57
2021/08/11 01:33:28;;;;;;;20.08;11.18;;;;;;;14.54;94.66;101155.44;689237;28;1382;-57
2021/08/11 01:33:56;;;;;;;21.35;11.30;;;;;;;14.54;94.92;101157.19;691226;28;1275;-59
2021/08/11 01:34:35;;;;;;;20.65;11.23;;;;;;;14.51;95.26;101152.88;689080;28;1347;-56
2021/08/11 01:34:59;;;;;;;25.73;12.13;;;;;;;14.50;95.40;101153.75;689169;28;2590;-59
2021/08/11 01:35:24;;;;;;;26.17;12.07;;;;;;;14.48;95.65;101152.88;690782;28;4581;-58
2021/08/11 01:35:53;;;;;;;21.83;11.13;;;;;;;14.44;95.88;101149.44;687271;28;4191;-57
2021/08/11 01:36:38;;;;;;;21.92;11.00;;;;;;;14.39;96.19;101148.63;688392;28;1582;-58
2021/08/11 01:37:03;;;;;;;24.23;11.75;;;;;;;14.38;95.94;101159.16;689309;28;1809;-57
2021/08/11 01:37:31;;;;;;;23.77;11.95;;;;;;;14.37;96.42;101154.78;691248;28;1663;-55
2021/08/11 01:37:55;;;;;;;23.90;11.95;;;;;;;14.38;96.37;101153.91;692773;28;1632;-58
2021/08/11 01:38:19;;;;;;;25.70;11.98;;;;;;;14.38;96.48;101153.91;689459;28;4661;-58
2021/08/11 01:38:54;;;;;;;25.63;12.23;;;;;;;14.37;96.29;101155.69;687624;28;1682;-59
2021/08/11 01:39:20;;;;;;;27.95;12.35;;;;;;;14.37;96.15;101154.78;690125;28;1429;-59
2021/08/11 01:39:48;;;;;;;23.23;12.07;;;;;;;14.36;96.19;101153.03;687368;28;2175;-57
2021/08/11 01:40:30;;;;;;;22.95;11.70;;;;;;;14.37;95.72;101152.16;689229;28;1762;-56
2021/08/11 01:40:55;;;;;;;22.23;11.45;;;;;;;14.38;95.59;101148.66;689593;28;1468;-58
2021/08/11 01:41:19;;;;;;;19.95;10.30;;;;;;;14.41;95.12;101148.59;685870;28;4349;-58
2021/08/11 01:41:45;;;;;;;19.67;9.95;;;;;;;14.42;95.18;101147.72;686559;28;1781;-58
2021/08/11 01:42:15;;;;;;;19.75;10.50;;;;;;;14.43;95.00;101147.69;687212;28;1493;-56
2021/08/11 01:42:39;;;;;;;17.60;9.88;;;;;;;14.44;95.39;101148.53;687344;28;2703;-58
2021/08/11 01:43:02;;;;;;;19.88;11.05;;;;;;;14.44;95.26;101145.91;686852;28;1013;-58
2021/08/11 01:43:26;;;;;;;21.40;11.10;;;;;;;14.44;95.36;101152.06;686932;28;1525;-58
2021/08/11 01:43:48;;;;;;;20.42;10.65;;;;;;;14.44;95.48;101154.69;686174;28;1457;-58
2021/08/11 01:44:10;;;;;;;19.92;10.68;;;;;;;14.45;95.02;101150.28;685177;28;4690;-58
2021/08/11 01:44:52;;;;;;;20.17;10.38;;;;;;;14.46;94.61;101147.66;685724;28;1470;-58
2021/08/11 01:45:16;;;;;;;19.85;9.95;;;;;;;14.49;94.37;101152.00;687549;28;2207;-59
2021/08/11 01:45:52;;;;;;;21.30;11.05;;;;;;;14.50;94.68;101153.75;689489;28;1654;-59
2021/08/11 01:46:15;;;;;;;20.15;11.45;;;;;;;14.49;94.73;101154.63;689135;28;1689;-58
2021/08/11 01:46:40;;;;;;;21.85;11.45;;;;;;;14.48;94.91;101155.50;686749;28;1569;-59
2021/08/11 01:47:05;;;;;;;21.50;11.65;;;;;;;14.48;94.88;101158.13;687495;28;1465;-58
2021/08/11 01:47:32;;;;;;;22.38;12.27;;;;;;;14.47;95.04;101151.16;688097;28;4601;-58
2021/08/11 01:48:23;;;;;;;22.33;11.30;;;;;;;14.44;95.04;101149.44;689304;28;1331;-58
2021/08/11 01:48:45;;;;;;;21.80;12.10;;;;;;;14.45;94.79;101150.28;687857;28;1852;-56
2021/08/11 01:49:11;;;;;;;19.73;11.15;;;;;;;14.46;94.87;101157.31;691219;28;1333;-58
2021/08/11 01:49:34;;;;;;;18.40;10.50;;;;;;;14.47;94.36;101148.53;691108;28;1954;-59
2021/08/11 01:49:55;;;;;;;18.20;9.63;;;;;;;14.50;94.12;101158.16;688672;28;1980;-59
2021/08/11 01:50:18;;;;;;;18.67;10.18;;;;;;;14.50;94.06;101156.38;686010;28;4463;-59
2021/08/11 01:50:42;;;;;;;17.95;10.30;;;;;;;14.51;93.72;101158.13;686433;28;1513;-59
2021/08/11 01:51:07;;;;;;;17.63;10.02;;;;;;;14.52;93.92;101151.09;683713;28;1896;-58